sensor_id;sensor_type;location;lat;lon;timestamp;P1;durP1;ratioP1;P2;durP2;ratioP2
43509;SDS011;29105;57.764;40.952;2023-02-28T00:00:32;5.13;;;2.92;;
43509;SDS011;29105;57.764;40.952;2023-02-28T00:02:58;5.03;;;2.45;;
43509;SDS011;29105;57.764;40.952;2023-02-28T00:05:25;4.57;;;2.72;;
43509;SDS011;29105;57.764;40.952;2023-02-28T00:07:51;4.95;;;2.08;;
43509;SDS011;29105;57.764;40.952;2023-02-28T00:10:21;2.92;;;2.17;;
43509;SDS011;29105;57.764;40.952;2023-02-28T00:12:52;3.38;;;1.27;;
43509;SDS011;29105;57.764;40.952;2023-02-28T00:15:19;5.00;;;2.85;;
43509;SDS011;29105;57.764;40.952;2023-02-28T00:17:45;4.40;;;2.30;;
43509;SDS011;29105;57.764;40.952;2023-02-28T00:20:12;5.72;;;2.28;;
43509;SDS011;29105;57.764;40.952;2023-02-28T00:22:39;5.43;;;2.67;;
43509;SDS011;29105;57.764;40.952;2023-02-28T00:25:06;2.20;;;1.77;;
43509;SDS011;29105;57.764;40.952;2023-02-28T00:27:34;8.35;;;3.50;;
43509;SDS011;29105;57.764;40.952;2023-02-28T00:30:00;4.40;;;2.70;;
43509;SDS011;29105;57.764;40.952;2023-02-28T00:32:26;6.95;;;2.90;;
43509;SDS011;29105;57.764;40.952;2023-02-28T00:34:52;3.03;;;1.65;;
43509;SDS011;29105;57.764;40.952;2023-02-28T00:37:17;4.30;;;2.28;;
43509;SDS011;29105;57.764;40.952;2023-02-28T00:39:43;4.90;;;2.50;;
43509;SDS011;29105;57.764;40.952;2023-02-28T00:42:09;11.88;;;1.98;;
43509;SDS011;29105;57.764;40.952;2023-02-28T00:44:34;4.82;;;2.05;;
43509;SDS011;29105;57.764;40.952;2023-02-28T00:47:00;4.60;;;2.83;;
43509;SDS011;29105;57.764;40.952;2023-02-28T00:49:26;3.75;;;1.85;;
43509;SDS011;29105;57.764;40.952;2023-02-28T00:51:53;3.90;;;2.58;;
43509;SDS011;29105;57.764;40.952;2023-02-28T00:54:19;5.03;;;2.65;;
43509;SDS011;29105;57.764;40.952;2023-02-28T00:56:45;7.30;;;3.00;;
43509;SDS011;29105;57.764;40.952;2023-02-28T00:59:12;7.47;;;2.30;;
43509;SDS011;29105;57.764;40.952;2023-02-28T01:01:38;4.85;;;2.30;;
43509;SDS011;29105;57.764;40.952;2023-02-28T01:04:07;7.50;;;3.13;;
43509;SDS011;29105;57.764;40.952;2023-02-28T01:06:32;3.70;;;1.65;;
43509;SDS011;29105;57.764;40.952;2023-02-28T01:08:58;6.00;;;3.05;;
43509;SDS011;29105;57.764;40.952;2023-02-28T01:11:24;5.32;;;2.10;;
43509;SDS011;29105;57.764;40.952;2023-02-28T01:13:50;3.00;;;2.08;;
43509;SDS011;29105;57.764;40.952;2023-02-28T01:16:16;5.03;;;2.00;;
43509;SDS011;29105;57.764;40.952;2023-02-28T01:18:42;2.50;;;1.38;;
43509;SDS011;29105;57.764;40.952;2023-02-28T01:21:10;6.93;;;3.05;;
43509;SDS011;29105;57.764;40.952;2023-02-28T01:23:39;4.45;;;2.35;;
43509;SDS011;29105;57.764;40.952;2023-02-28T01:26:08;6.22;;;2.10;;
43509;SDS011;29105;57.764;40.952;2023-02-28T01:28:39;5.18;;;2.70;;
43509;SDS011;29105;57.764;40.952;2023-02-28T01:31:05;3.80;;;1.83;;
43509;SDS011;29105;57.764;40.952;2023-02-28T01:33:31;3.60;;;1.85;;
43509;SDS011;29105;57.764;40.952;2023-02-28T01:36:01;3.35;;;2.05;;
43509;SDS011;29105;57.764;40.952;2023-02-28T01:38:33;6.18;;;2.92;;
43509;SDS011;29105;57.764;40.952;2023-02-28T01:40:59;5.22;;;3.20;;
43509;SDS011;29105;57.764;40.952;2023-02-28T01:43:29;4.18;;;1.30;;
43509;SDS011;29105;57.764;40.952;2023-02-28T01:45:57;7.60;;;2.60;;
43509;SDS011;29105;57.764;40.952;2023-02-28T01:48:29;7.47;;;2.78;;
43509;SDS011;29105;57.764;40.952;2023-02-28T01:51:01;3.28;;;1.75;;
43509;SDS011;29105;57.764;40.952;2023-02-28T01:53:32;5.95;;;2.15;;
43509;SDS011;29105;57.764;40.952;2023-02-28T01:56:00;5.13;;;2.58;;
43509;SDS011;29105;57.764;40.952;2023-02-28T01:58:30;4.35;;;2.80;;
43509;SDS011;29105;57.764;40.952;2023-02-28T02:00:56;3.70;;;1.30;;
43509;SDS011;29105;57.764;40.952;2023-02-28T02:03:22;5.65;;;1.73;;
43509;SDS011;29105;57.764;40.952;2023-02-28T02:05:49;5.38;;;2.20;;
43509;SDS011;29105;57.764;40.952;2023-02-28T02:08:16;4.57;;;2.10;;
43509;SDS011;29105;57.764;40.952;2023-02-28T02:10:45;4.05;;;2.17;;
43509;SDS011;29105;57.764;40.952;2023-02-28T02:31:51;4.30;;;1.85;;
43509;SDS011;29105;57.764;40.952;2023-02-28T02:36:53;2.20;;;1.08;;
43509;SDS011;29105;57.764;40.952;2023-02-28T02:43:08;3.95;;;1.92;;
43509;SDS011;29105;57.764;40.952;2023-02-28T02:48:16;3.22;;;1.55;;
43509;SDS011;29105;57.764;40.952;2023-02-28T02:51:06;1.52;;;1.05;;
43509;SDS011;29105;57.764;40.952;2023-02-28T02:53:37;1.70;;;1.15;;
43509;SDS011;29105;57.764;40.952;2023-02-28T02:56:07;3.63;;;1.83;;
43509;SDS011;29105;57.764;40.952;2023-02-28T02:58:37;1.13;;;0.90;;
43509;SDS011;29105;57.764;40.952;2023-02-28T03:01:08;3.13;;;1.15;;
43509;SDS011;29105;57.764;40.952;2023-02-28T03:03:36;4.57;;;1.77;;
43509;SDS011;29105;57.764;40.952;2023-02-28T03:06:02;1.70;;;1.13;;
43509;SDS011;29105;57.764;40.952;2023-02-28T03:08:29;4.10;;;1.05;;
43509;SDS011;29105;57.764;40.952;2023-02-28T03:11:02;3.42;;;1.52;;
43509;SDS011;29105;57.764;40.952;2023-02-28T03:18:38;2.30;;;1.40;;
43509;SDS011;29105;57.764;40.952;2023-02-28T03:22:30;4.05;;;1.60;;
43509;SDS011;29105;57.764;40.952;2023-02-28T03:27:23;3.50;;;1.58;;
43509;SDS011;29105;57.764;40.952;2023-02-28T03:29:54;6.57;;;1.30;;
43509;SDS011;29105;57.764;40.952;2023-02-28T03:32:29;4.57;;;1.65;;
43509;SDS011;29105;57.764;40.952;2023-02-28T03:35:02;4.32;;;1.75;;
43509;SDS011;29105;57.764;40.952;2023-02-28T03:37:31;1.25;;;0.90;;
43509;SDS011;29105;57.764;40.952;2023-02-28T03:40:08;2.17;;;1.48;;
43509;SDS011;29105;57.764;40.952;2023-02-28T03:42:40;1.90;;;0.93;;
43509;SDS011;29105;57.764;40.952;2023-02-28T03:45:11;2.33;;;1.00;;
43509;SDS011;29105;57.764;40.952;2023-02-28T03:47:47;4.72;;;2.30;;
43509;SDS011;29105;57.764;40.952;2023-02-28T03:50:29;3.35;;;1.70;;
43509;SDS011;29105;57.764;40.952;2023-02-28T03:53:08;4.80;;;1.63;;
43509;SDS011;29105;57.764;40.952;2023-02-28T03:55:45;2.65;;;1.48;;
43509;SDS011;29105;57.764;40.952;2023-02-28T03:58:25;3.08;;;1.52;;
43509;SDS011;29105;57.764;40.952;2023-02-28T04:00:59;1.85;;;1.60;;
43509;SDS011;29105;57.764;40.952;2023-02-28T04:03:34;4.32;;;1.77;;
43509;SDS011;29105;57.764;40.952;2023-02-28T04:06:03;3.95;;;1.58;;
43509;SDS011;29105;57.764;40.952;2023-02-28T04:08:29;2.20;;;1.30;;
43509;SDS011;29105;57.764;40.952;2023-02-28T04:11:01;2.35;;;1.42;;
43509;SDS011;29105;57.764;40.952;2023-02-28T04:13:29;3.47;;;1.50;;
43509;SDS011;29105;57.764;40.952;2023-02-28T04:15:55;2.25;;;1.35;;
43509;SDS011;29105;57.764;40.952;2023-02-28T04:18:21;1.60;;;1.08;;
43509;SDS011;29105;57.764;40.952;2023-02-28T04:20:46;3.92;;;1.40;;
43509;SDS011;29105;57.764;40.952;2023-02-28T04:23:12;2.65;;;1.63;;
43509;SDS011;29105;57.764;40.952;2023-02-28T04:25:37;2.30;;;1.45;;
43509;SDS011;29105;57.764;40.952;2023-02-28T04:28:05;1.15;;;0.68;;
43509;SDS011;29105;57.764;40.952;2023-02-28T04:30:31;4.40;;;1.55;;
43509;SDS011;29105;57.764;40.952;2023-02-28T04:32:58;1.40;;;0.88;;
43509;SDS011;29105;57.764;40.952;2023-02-28T04:35:23;2.85;;;1.85;;
43509;SDS011;29105;57.764;40.952;2023-02-28T04:37:49;3.08;;;1.42;;
43509;SDS011;29105;57.764;40.952;2023-02-28T04:40:15;0.82;;;0.73;;
43509;SDS011;29105;57.764;40.952;2023-02-28T04:42:41;1.80;;;1.15;;
43509;SDS011;29105;57.764;40.952;2023-02-28T04:45:07;2.17;;;1.50;;
43509;SDS011;29105;57.764;40.952;2023-02-28T04:47:35;2.47;;;1.45;;
43509;SDS011;29105;57.764;40.952;2023-02-28T04:50:02;2.20;;;1.35;;
43509;SDS011;29105;57.764;40.952;2023-02-28T04:52:29;4.45;;;1.40;;
43509;SDS011;29105;57.764;40.952;2023-02-28T04:54:55;2.90;;;1.20;;
43509;SDS011;29105;57.764;40.952;2023-02-28T04:57:20;0.82;;;0.75;;
43509;SDS011;29105;57.764;40.952;2023-02-28T04:59:46;2.25;;;1.02;;
43509;SDS011;29105;57.764;40.952;2023-02-28T05:02:11;2.60;;;1.13;;
43509;SDS011;29105;57.764;40.952;2023-02-28T05:04:37;4.97;;;1.90;;
43509;SDS011;29105;57.764;40.952;2023-02-28T05:07:03;3.88;;;1.52;;
43509;SDS011;29105;57.764;40.952;2023-02-28T05:09:29;6.95;;;1.23;;
43509;SDS011;29105;57.764;40.952;2023-02-28T05:11:55;0.88;;;0.70;;
43509;SDS011;29105;57.764;40.952;2023-02-28T05:14:21;4.72;;;2.03;;
43509;SDS011;29105;57.764;40.952;2023-02-28T05:16:47;3.45;;;1.35;;
43509;SDS011;29105;57.764;40.952;2023-02-28T05:19:12;1.58;;;1.02;;
43509;SDS011;29105;57.764;40.952;2023-02-28T05:21:39;3.17;;;1.70;;
43509;SDS011;29105;57.764;40.952;2023-02-28T05:24:07;4.40;;;1.88;;
43509;SDS011;29105;57.764;40.952;2023-02-28T05:26:35;2.33;;;1.33;;
43509;SDS011;29105;57.764;40.952;2023-02-28T05:29:02;1.30;;;0.93;;
43509;SDS011;29105;57.764;40.952;2023-02-28T05:31:28;4.35;;;1.25;;
43509;SDS011;29105;57.764;40.952;2023-02-28T05:33:54;3.15;;;1.50;;
43509;SDS011;29105;57.764;40.952;2023-02-28T05:36:20;2.75;;;1.45;;
43509;SDS011;29105;57.764;40.952;2023-02-28T05:38:46;3.45;;;1.50;;
43509;SDS011;29105;57.764;40.952;2023-02-28T05:41:13;3.78;;;1.70;;
43509;SDS011;29105;57.764;40.952;2023-02-28T05:43:39;3.95;;;1.45;;
43509;SDS011;29105;57.764;40.952;2023-02-28T05:46:05;5.38;;;1.90;;
43509;SDS011;29105;57.764;40.952;2023-02-28T05:48:32;3.85;;;1.63;;
43509;SDS011;29105;57.764;40.952;2023-02-28T05:51:02;2.25;;;1.08;;
43509;SDS011;29105;57.764;40.952;2023-02-28T05:53:29;3.13;;;1.23;;
43509;SDS011;29105;57.764;40.952;2023-02-28T05:55:55;4.10;;;1.75;;
43509;SDS011;29105;57.764;40.952;2023-02-28T05:58:21;1.73;;;0.90;;
43509;SDS011;29105;57.764;40.952;2023-02-28T06:00:47;2.03;;;1.02;;
43509;SDS011;29105;57.764;40.952;2023-02-28T06:03:12;2.15;;;1.10;;
43509;SDS011;29105;57.764;40.952;2023-02-28T06:05:38;3.38;;;1.45;;
43509;SDS011;29105;57.764;40.952;2023-02-28T06:08:04;2.65;;;1.17;;
43509;SDS011;29105;57.764;40.952;2023-02-28T06:10:32;3.92;;;2.10;;
43509;SDS011;29105;57.764;40.952;2023-02-28T06:13:05;2.05;;;1.30;;
43509;SDS011;29105;57.764;40.952;2023-02-28T06:17:57;2.60;;;1.60;;
43509;SDS011;29105;57.764;40.952;2023-02-28T06:20:24;4.03;;;1.83;;
43509;SDS011;29105;57.764;40.952;2023-02-28T06:22:51;2.90;;;1.23;;
43509;SDS011;29105;57.764;40.952;2023-02-28T06:25:17;1.73;;;1.15;;
43509;SDS011;29105;57.764;40.952;2023-02-28T06:27:43;3.00;;;1.58;;
43509;SDS011;29105;57.764;40.952;2023-02-28T06:30:09;7.03;;;1.83;;
43509;SDS011;29105;57.764;40.952;2023-02-28T06:32:36;4.22;;;1.52;;
43509;SDS011;29105;57.764;40.952;2023-02-28T06:35:02;3.80;;;1.83;;
43509;SDS011;29105;57.764;40.952;2023-02-28T06:37:30;3.50;;;1.60;;
43509;SDS011;29105;57.764;40.952;2023-02-28T06:39:56;2.88;;;1.65;;
43509;SDS011;29105;57.764;40.952;2023-02-28T06:42:22;3.72;;;1.92;;
43509;SDS011;29105;57.764;40.952;2023-02-28T06:44:57;3.17;;;1.70;;
43509;SDS011;29105;57.764;40.952;2023-02-28T06:47:23;3.22;;;1.63;;
43509;SDS011;29105;57.764;40.952;2023-02-28T06:49:48;3.90;;;1.50;;
43509;SDS011;29105;57.764;40.952;2023-02-28T06:52:15;4.80;;;1.67;;
43509;SDS011;29105;57.764;40.952;2023-02-28T06:54:41;3.10;;;1.70;;
43509;SDS011;29105;57.764;40.952;2023-02-28T06:57:07;3.50;;;1.85;;
43509;SDS011;29105;57.764;40.952;2023-02-28T06:59:33;1.60;;;1.17;;
43509;SDS011;29105;57.764;40.952;2023-02-28T07:02:00;4.13;;;1.45;;
43509;SDS011;29105;57.764;40.952;2023-02-28T07:04:27;2.05;;;1.40;;
43509;SDS011;29105;57.764;40.952;2023-02-28T07:06:53;4.63;;;2.22;;
43509;SDS011;29105;57.764;40.952;2023-02-28T07:09:21;3.30;;;1.33;;
43509;SDS011;29105;57.764;40.952;2023-02-28T07:11:46;1.95;;;0.90;;
43509;SDS011;29105;57.764;40.952;2023-02-28T07:14:12;4.32;;;2.35;;
43509;SDS011;29105;57.764;40.952;2023-02-28T07:16:38;2.65;;;1.10;;
43509;SDS011;29105;57.764;40.952;2023-02-28T07:19:03;2.20;;;1.13;;
43509;SDS011;29105;57.764;40.952;2023-02-28T07:21:29;3.55;;;1.75;;
43509;SDS011;29105;57.764;40.952;2023-02-28T07:23:55;4.65;;;1.73;;
43509;SDS011;29105;57.764;40.952;2023-02-28T07:26:21;2.83;;;1.27;;
43509;SDS011;29105;57.764;40.952;2023-02-28T07:28:47;3.15;;;1.10;;
43509;SDS011;29105;57.764;40.952;2023-02-28T07:31:14;3.65;;;1.92;;
43509;SDS011;29105;57.764;40.952;2023-02-28T07:33:39;2.47;;;1.27;;
43509;SDS011;29105;57.764;40.952;2023-02-28T07:36:06;2.72;;;1.30;;
43509;SDS011;29105;57.764;40.952;2023-02-28T07:38:43;3.30;;;1.55;;
43509;SDS011;29105;57.764;40.952;2023-02-28T07:41:12;3.63;;;0.93;;
43509;SDS011;29105;57.764;40.952;2023-02-28T07:43:37;2.55;;;1.42;;
43509;SDS011;29105;57.764;40.952;2023-02-28T07:46:04;4.78;;;1.52;;
43509;SDS011;29105;57.764;40.952;2023-02-28T07:48:31;2.97;;;1.67;;
43509;SDS011;29105;57.764;40.952;2023-02-28T07:50:57;3.35;;;1.40;;
43509;SDS011;29105;57.764;40.952;2023-02-28T07:53:24;4.25;;;2.00;;
43509;SDS011;29105;57.764;40.952;2023-02-28T07:55:50;3.15;;;1.50;;
43509;SDS011;29105;57.764;40.952;2023-02-28T07:58:15;3.85;;;2.05;;
43509;SDS011;29105;57.764;40.952;2023-02-28T08:00:41;3.67;;;1.75;;
43509;SDS011;29105;57.764;40.952;2023-02-28T08:03:08;2.50;;;1.55;;
43509;SDS011;29105;57.764;40.952;2023-02-28T08:05:40;4.00;;;1.55;;
43509;SDS011;29105;57.764;40.952;2023-02-28T08:08:06;5.38;;;1.77;;
43509;SDS011;29105;57.764;40.952;2023-02-28T08:10:33;2.75;;;1.33;;
43509;SDS011;29105;57.764;40.952;2023-02-28T08:12:58;2.55;;;1.45;;
43509;SDS011;29105;57.764;40.952;2023-02-28T08:15:25;1.30;;;0.77;;
43509;SDS011;29105;57.764;40.952;2023-02-28T08:17:51;3.13;;;1.50;;
43509;SDS011;29105;57.764;40.952;2023-02-28T08:20:17;2.88;;;1.33;;
43509;SDS011;29105;57.764;40.952;2023-02-28T08:22:42;2.45;;;1.55;;
43509;SDS011;29105;57.764;40.952;2023-02-28T08:25:08;5.78;;;1.77;;
43509;SDS011;29105;57.764;40.952;2023-02-28T08:27:34;5.43;;;1.83;;
43509;SDS011;29105;57.764;40.952;2023-02-28T08:30:00;4.18;;;1.55;;
43509;SDS011;29105;57.764;40.952;2023-02-28T08:32:26;2.05;;;1.08;;
43509;SDS011;29105;57.764;40.952;2023-02-28T08:34:51;2.97;;;1.15;;
43509;SDS011;29105;57.764;40.952;2023-02-28T08:37:17;3.45;;;1.13;;
43509;SDS011;29105;57.764;40.952;2023-02-28T08:39:43;1.45;;;1.10;;
43509;SDS011;29105;57.764;40.952;2023-02-28T08:42:08;2.03;;;0.40;;
43509;SDS011;29105;57.764;40.952;2023-02-28T08:44:34;2.17;;;0.90;;
43509;SDS011;29105;57.764;40.952;2023-02-28T08:47:00;2.75;;;1.55;;
43509;SDS011;29105;57.764;40.952;2023-02-28T08:49:25;6.90;;;1.55;;
43509;SDS011;29105;57.764;40.952;2023-02-28T08:51:51;3.70;;;0.95;;
43509;SDS011;29105;57.764;40.952;2023-02-28T08:54:17;4.15;;;1.40;;
43509;SDS011;29105;57.764;40.952;2023-02-28T08:56:47;3.42;;;1.38;;
43509;SDS011;29105;57.764;40.952;2023-02-28T08:59:13;1.85;;;0.98;;
43509;SDS011;29105;57.764;40.952;2023-02-28T09:01:39;2.22;;;1.20;;
43509;SDS011;29105;57.764;40.952;2023-02-28T09:04:06;3.10;;;1.52;;
43509;SDS011;29105;57.764;40.952;2023-02-28T09:06:33;2.70;;;0.65;;
43509;SDS011;29105;57.764;40.952;2023-02-28T09:08:59;2.88;;;1.00;;
43509;SDS011;29105;57.764;40.952;2023-02-28T09:11:27;0.95;;;0.75;;
43509;SDS011;29105;57.764;40.952;2023-02-28T09:13:53;1.33;;;0.80;;
43509;SDS011;29105;57.764;40.952;2023-02-28T09:16:21;2.90;;;1.48;;
43509;SDS011;29105;57.764;40.952;2023-02-28T09:18:46;2.63;;;1.48;;
43509;SDS011;29105;57.764;40.952;2023-02-28T09:21:14;1.42;;;0.88;;
43509;SDS011;29105;57.764;40.952;2023-02-28T09:23:41;2.33;;;1.25;;
43509;SDS011;29105;57.764;40.952;2023-02-28T09:26:11;2.00;;;0.90;;
43509;SDS011;29105;57.764;40.952;2023-02-28T09:28:39;3.60;;;1.08;;
43509;SDS011;29105;57.764;40.952;2023-02-28T09:31:04;0.90;;;0.68;;
43509;SDS011;29105;57.764;40.952;2023-02-28T09:33:30;3.65;;;1.38;;
43509;SDS011;29105;57.764;40.952;2023-02-28T09:36:00;3.72;;;1.25;;
43509;SDS011;29105;57.764;40.952;2023-02-28T09:38:26;3.70;;;1.50;;
43509;SDS011;29105;57.764;40.952;2023-02-28T09:40:54;2.73;;;1.37;;
43509;SDS011;29105;57.764;40.952;2023-02-28T09:43:22;3.22;;;1.38;;
43509;SDS011;29105;57.764;40.952;2023-02-28T09:45:55;4.72;;;1.80;;
43509;SDS011;29105;57.764;40.952;2023-02-28T09:48:32;2.97;;;1.55;;
43509;SDS011;29105;57.764;40.952;2023-02-28T09:53:52;3.53;;;1.58;;
43509;SDS011;29105;57.764;40.952;2023-02-28T09:56:20;1.00;;;0.77;;
43509;SDS011;29105;57.764;40.952;2023-02-28T09:59:10;2.33;;;1.20;;
43509;SDS011;29105;57.764;40.952;2023-02-28T10:02:02;3.17;;;1.48;;
43509;SDS011;29105;57.764;40.952;2023-02-28T10:10:20;2.45;;;1.45;;
43509;SDS011;29105;57.764;40.952;2023-02-28T10:12:48;2.92;;;1.27;;
43509;SDS011;29105;57.764;40.952;2023-02-28T10:15:18;1.90;;;1.00;;
43509;SDS011;29105;57.764;40.952;2023-02-28T10:17:45;3.17;;;1.38;;
43509;SDS011;29105;57.764;40.952;2023-02-28T10:20:19;2.28;;;0.90;;
43509;SDS011;29105;57.764;40.952;2023-02-28T10:22:51;1.83;;;0.70;;
43509;SDS011;29105;57.764;40.952;2023-02-28T10:25:52;3.67;;;1.25;;
43509;SDS011;29105;57.764;40.952;2023-02-28T10:28:20;1.40;;;0.73;;
43509;SDS011;29105;57.764;40.952;2023-02-28T10:30:48;1.92;;;0.95;;
43509;SDS011;29105;57.764;40.952;2023-02-28T10:33:19;1.93;;;1.13;;
43509;SDS011;29105;57.764;40.952;2023-02-28T10:35:47;4.13;;;1.30;;
43509;SDS011;29105;57.764;40.952;2023-02-28T10:38:15;1.85;;;1.02;;
43509;SDS011;29105;57.764;40.952;2023-02-28T10:40:43;1.88;;;0.77;;
43509;SDS011;29105;57.764;40.952;2023-02-28T10:58:46;2.22;;;1.17;;
43509;SDS011;29105;57.764;40.952;2023-02-28T11:01:38;1.73;;;0.65;;
43509;SDS011;29105;57.764;40.952;2023-02-28T11:04:16;1.85;;;0.43;;
43509;SDS011;29105;57.764;40.952;2023-02-28T11:06:42;3.75;;;0.73;;
43509;SDS011;29105;57.764;40.952;2023-02-28T11:09:28;1.75;;;0.95;;
43509;SDS011;29105;57.764;40.952;2023-02-28T11:12:05;0.95;;;0.68;;
43509;SDS011;29105;57.764;40.952;2023-02-28T11:14:37;3.35;;;0.75;;
43509;SDS011;29105;57.764;40.952;2023-02-28T11:17:19;3.05;;;1.35;;
43509;SDS011;29105;57.764;40.952;2023-02-28T11:19:48;1.10;;;0.50;;
43509;SDS011;29105;57.764;40.952;2023-02-28T11:22:20;3.70;;;1.23;;
43509;SDS011;29105;57.764;40.952;2023-02-28T11:24:50;2.42;;;0.93;;
43509;SDS011;29105;57.764;40.952;2023-02-28T11:27:39;1.80;;;0.98;;
43509;SDS011;29105;57.764;40.952;2023-02-28T11:32:59;1.58;;;0.73;;
43509;SDS011;29105;57.764;40.952;2023-02-28T11:35:28;3.13;;;1.85;;
43509;SDS011;29105;57.764;40.952;2023-02-28T11:37:57;2.38;;;1.50;;
43509;SDS011;29105;57.764;40.952;2023-02-28T11:45:45;3.08;;;1.00;;
43509;SDS011;29105;57.764;40.952;2023-02-28T11:48:20;2.95;;;0.90;;
43509;SDS011;29105;57.764;40.952;2023-02-28T11:53:36;1.67;;;0.75;;
43509;SDS011;29105;57.764;40.952;2023-02-28T11:56:09;2.83;;;0.98;;
43509;SDS011;29105;57.764;40.952;2023-02-28T12:01:27;2.28;;;1.02;;
43509;SDS011;29105;57.764;40.952;2023-02-28T12:10:21;1.95;;;0.80;;
43509;SDS011;29105;57.764;40.952;2023-02-28T12:15:48;2.08;;;0.80;;
43509;SDS011;29105;57.764;40.952;2023-02-28T12:21:26;5.07;;;0.55;;
43509;SDS011;29105;57.764;40.952;2023-02-28T12:24:25;1.00;;;0.47;;
43509;SDS011;29105;57.764;40.952;2023-02-28T12:26:54;1.35;;;0.50;;
43509;SDS011;29105;57.764;40.952;2023-02-28T12:29:23;0.98;;;0.50;;
43509;SDS011;29105;57.764;40.952;2023-02-28T12:32:12;0.82;;;0.50;;
43509;SDS011;29105;57.764;40.952;2023-02-28T12:35:04;1.40;;;0.68;;
43509;SDS011;29105;57.764;40.952;2023-02-28T12:40:22;0.50;;;0.40;;
43509;SDS011;29105;57.764;40.952;2023-02-28T12:42:51;1.58;;;0.70;;
43509;SDS011;29105;57.764;40.952;2023-02-28T12:45:22;2.42;;;1.58;;
43509;SDS011;29105;57.764;40.952;2023-02-28T12:47:57;1.85;;;0.70;;
43509;SDS011;29105;57.764;40.952;2023-02-28T12:50:28;2.47;;;1.15;;
43509;SDS011;29105;57.764;40.952;2023-02-28T12:53:03;0.82;;;0.77;;
43509;SDS011;29105;57.764;40.952;2023-02-28T12:55:38;1.83;;;0.82;;
43509;SDS011;29105;57.764;40.952;2023-02-28T13:01:02;2.67;;;0.90;;
43509;SDS011;29105;57.764;40.952;2023-02-28T13:09:32;0.77;;;0.50;;
43509;SDS011;29105;57.764;40.952;2023-02-28T13:11:57;1.55;;;0.63;;
43509;SDS011;29105;57.764;40.952;2023-02-28T13:17:03;1.80;;;0.40;;
43509;SDS011;29105;57.764;40.952;2023-02-28T13:19:37;1.85;;;0.35;;
43509;SDS011;29105;57.764;40.952;2023-02-28T13:22:11;0.75;;;0.20;;
43509;SDS011;29105;57.764;40.952;2023-02-28T13:29:49;0.63;;;0.40;;
43509;SDS011;29105;57.764;40.952;2023-02-28T13:32:34;2.30;;;0.32;;
43509;SDS011;29105;57.764;40.952;2023-02-28T13:37:36;1.92;;;0.57;;
43509;SDS011;29105;57.764;40.952;2023-02-28T13:42:36;1.80;;;0.82;;
43509;SDS011;29105;57.764;40.952;2023-02-28T14:07:20;1.35;;;0.55;;
43509;SDS011;29105;57.764;40.952;2023-02-28T14:09:51;4.95;;;1.55;;
43509;SDS011;29105;57.764;40.952;2023-02-28T14:15:30;2.70;;;0.70;;
43509;SDS011;29105;57.764;40.952;2023-02-28T14:18:04;0.85;;;0.63;;
43509;SDS011;29105;57.764;40.952;2023-02-28T14:20:38;2.28;;;0.88;;
43509;SDS011;29105;57.764;40.952;2023-02-28T14:23:39;2.55;;;0.75;;
43509;SDS011;29105;57.764;40.952;2023-02-28T14:32:35;1.30;;;0.40;;
43509;SDS011;29105;57.764;40.952;2023-02-28T14:35:39;1.75;;;0.30;;
43509;SDS011;29105;57.764;40.952;2023-02-28T14:38:13;3.65;;;1.65;;
43509;SDS011;29105;57.764;40.952;2023-02-28T14:40:43;3.28;;;0.22;;
43509;SDS011;29105;57.764;40.952;2023-02-28T14:43:23;0.47;;;0.30;;
43509;SDS011;29105;57.764;40.952;2023-02-28T14:45:51;2.70;;;0.32;;
43509;SDS011;29105;57.764;40.952;2023-02-28T14:48:22;2.13;;;0.60;;
43509;SDS011;29105;57.764;40.952;2023-02-28T14:50:51;6.53;;;0.82;;
43509;SDS011;29105;57.764;40.952;2023-02-28T14:53:18;2.65;;;0.50;;
43509;SDS011;29105;57.764;40.952;2023-02-28T14:55:46;1.02;;;0.47;;
43509;SDS011;29105;57.764;40.952;2023-02-28T14:58:21;1.95;;;0.50;;
43509;SDS011;29105;57.764;40.952;2023-02-28T15:00:52;2.20;;;0.50;;
43509;SDS011;29105;57.764;40.952;2023-02-28T15:03:21;0.70;;;0.32;;
43509;SDS011;29105;57.764;40.952;2023-02-28T15:05:53;1.48;;;0.50;;
43509;SDS011;29105;57.764;40.952;2023-02-28T15:08:20;1.08;;;0.55;;
43509;SDS011;29105;57.764;40.952;2023-02-28T15:10:49;2.58;;;0.85;;
43509;SDS011;29105;57.764;40.952;2023-02-28T15:13:16;2.00;;;0.90;;
43509;SDS011;29105;57.764;40.952;2023-02-28T15:15:46;5.97;;;1.85;;
43509;SDS011;29105;57.764;40.952;2023-02-28T15:21:10;3.55;;;1.25;;
43509;SDS011;29105;57.764;40.952;2023-02-28T15:23:45;2.72;;;1.15;;
43509;SDS011;29105;57.764;40.952;2023-02-28T15:26:16;4.60;;;1.00;;
43509;SDS011;29105;57.764;40.952;2023-02-28T15:28:44;3.58;;;0.55;;
43509;SDS011;29105;57.764;40.952;2023-02-28T15:34:06;1.17;;;0.50;;
43509;SDS011;29105;57.764;40.952;2023-02-28T15:36:40;2.33;;;0.57;;
43509;SDS011;29105;57.764;40.952;2023-02-28T15:39:22;3.28;;;0.90;;
43509;SDS011;29105;57.764;40.952;2023-02-28T15:41:52;2.38;;;0.73;;
43509;SDS011;29105;57.764;40.952;2023-02-28T15:44:24;1.92;;;0.77;;
43509;SDS011;29105;57.764;40.952;2023-02-28T15:46:58;4.22;;;1.02;;
43509;SDS011;29105;57.764;40.952;2023-02-28T15:49:29;2.58;;;1.02;;
43509;SDS011;29105;57.764;40.952;2023-02-28T15:51:58;9.23;;;1.73;;
43509;SDS011;29105;57.764;40.952;2023-02-28T15:54:29;1.50;;;0.52;;
43509;SDS011;29105;57.764;40.952;2023-02-28T15:57:00;5.57;;;1.00;;
43509;SDS011;29105;57.764;40.952;2023-02-28T15:59:29;2.35;;;0.98;;
43509;SDS011;29105;57.764;40.952;2023-02-28T16:07:35;1.17;;;0.65;;
43509;SDS011;29105;57.764;40.952;2023-02-28T16:10:02;2.63;;;0.82;;
43509;SDS011;29105;57.764;40.952;2023-02-28T16:12:29;4.38;;;1.00;;
43509;SDS011;29105;57.764;40.952;2023-02-28T16:14:57;1.73;;;0.80;;
43509;SDS011;29105;57.764;40.952;2023-02-28T16:17:26;5.43;;;1.20;;
43509;SDS011;29105;57.764;40.952;2023-02-28T16:19:54;10.10;;;1.35;;
43509;SDS011;29105;57.764;40.952;2023-02-28T16:22:21;4.22;;;1.65;;
43509;SDS011;29105;57.764;40.952;2023-02-28T16:24:47;5.85;;;3.05;;
43509;SDS011;29105;57.764;40.952;2023-02-28T16:27:25;4.30;;;1.40;;
43509;SDS011;29105;57.764;40.952;2023-02-28T16:29:53;5.57;;;1.42;;
43509;SDS011;29105;57.764;40.952;2023-02-28T16:32:19;4.60;;;1.50;;
43509;SDS011;29105;57.764;40.952;2023-02-28T16:34:45;3.08;;;0.90;;
43509;SDS011;29105;57.764;40.952;2023-02-28T16:37:14;2.38;;;1.23;;
43509;SDS011;29105;57.764;40.952;2023-02-28T16:39:41;6.35;;;1.85;;
43509;SDS011;29105;57.764;40.952;2023-02-28T16:42:10;4.53;;;1.35;;
43509;SDS011;29105;57.764;40.952;2023-02-28T16:44:39;3.33;;;0.47;;
43509;SDS011;29105;57.764;40.952;2023-02-28T16:47:05;7.45;;;0.50;;
43509;SDS011;29105;57.764;40.952;2023-02-28T16:49:31;1.85;;;0.55;;
43509;SDS011;29105;57.764;40.952;2023-02-28T16:51:56;3.45;;;0.80;;
43509;SDS011;29105;57.764;40.952;2023-02-28T16:54:22;2.47;;;1.10;;
43509;SDS011;29105;57.764;40.952;2023-02-28T16:56:48;4.28;;;1.90;;
43509;SDS011;29105;57.764;40.952;2023-02-28T16:59:15;4.85;;;1.52;;
43509;SDS011;29105;57.764;40.952;2023-02-28T17:01:44;4.75;;;0.98;;
43509;SDS011;29105;57.764;40.952;2023-02-28T17:04:10;3.03;;;0.80;;
43509;SDS011;29105;57.764;40.952;2023-02-28T17:06:37;1.42;;;0.50;;
43509;SDS011;29105;57.764;40.952;2023-02-28T17:09:03;6.55;;;1.17;;
43509;SDS011;29105;57.764;40.952;2023-02-28T17:11:29;3.70;;;1.95;;
43509;SDS011;29105;57.764;40.952;2023-02-28T17:13:54;7.60;;;1.80;;
43509;SDS011;29105;57.764;40.952;2023-02-28T17:16:23;2.85;;;1.30;;
43509;SDS011;29105;57.764;40.952;2023-02-28T17:18:54;3.92;;;1.50;;
43509;SDS011;29105;57.764;40.952;2023-02-28T17:21:21;4.00;;;1.40;;